createdAt,value
2023-03-08T00:02:37.689Z,78.62
2023-03-08T00:05:21.376Z,78.67
2023-03-08T00:08:04.992Z,78.93
2023-03-08T00:10:48.773Z,78.95
2023-03-08T00:13:32.570Z,79.70
2023-03-08T00:16:16.450Z,79.10
2023-03-08T00:19:01.653Z,78.63
2023-03-08T00:21:45.447Z,78.89
2023-03-08T00:24:29.180Z,80.14
2023-03-08T00:27:12.943Z,79.41
2023-03-08T00:29:56.893Z,79.42
2023-03-08T00:32:43.192Z,79.93
2023-03-08T00:35:31.160Z,79.14
2023-03-08T00:38:14.927Z,78.66
2023-03-08T00:40:58.786Z,79.92
2023-03-08T00:43:43.582Z,79.61
2023-03-08T00:46:27.657Z,79.82
2023-03-08T00:49:12.665Z,80.20
2023-03-08T00:51:57.839Z,79.53
2023-03-08T00:54:41.729Z,79.51
2023-03-08T00:57:25.440Z,79.15
2023-03-08T01:00:12.815Z,78.91
2023-03-08T01:02:57.668Z,78.35
2023-03-08T01:05:45.535Z,78.68
2023-03-08T01:08:31.337Z,79.02
2023-03-08T01:11:21.238Z,79.03
2023-03-08T01:14:06.613Z,78.33
2023-03-08T01:16:52.499Z,79.73
2023-03-08T01:19:36.231Z,79.78
2023-03-08T01:22:21.291Z,79.21
2023-03-08T01:25:07.208Z,79.41
2023-03-08T01:27:51.101Z,79.00
2023-03-08T01:30:35.256Z,78.71
2023-03-08T01:33:21.070Z,79.20
2023-03-08T01:36:08.598Z,79.73
2023-03-08T01:38:53.198Z,80.36
2023-03-08T01:41:39.389Z,80.72
2023-03-08T01:44:23.538Z,79.69
2023-03-08T01:47:15.152Z,80.09
2023-03-08T01:50:17.881Z,80.56
2023-03-08T01:53:01.769Z,80.68
2023-03-08T01:55:45.635Z,81.06
2023-03-08T01:58:31.704Z,80.21
2023-03-08T02:01:15.984Z,79.90
2023-03-08T02:04:00.713Z,81.32
2023-03-08T02:06:45.559Z,80.40
2023-03-08T02:09:31.378Z,80.42
2023-03-08T02:12:16.403Z,79.40
2023-03-08T02:15:03.798Z,80.19
2023-03-08T02:17:48.460Z,79.25
2023-03-08T02:20:34.273Z,78.70
2023-03-08T02:23:26.976Z,78.35
2023-03-08T02:26:10.832Z,78.73
2023-03-08T02:28:54.642Z,80.98
2023-03-08T02:31:38.614Z,79.71
2023-03-08T02:34:22.517Z,79.18
2023-03-08T02:37:06.277Z,78.22
2023-03-08T02:39:51.558Z,82.57
2023-03-08T02:42:35.458Z,81.79
2023-03-08T02:45:19.386Z,83.15
2023-03-08T02:48:03.487Z,83.43
2023-03-08T02:50:47.489Z,82.87
2023-03-08T02:53:31.545Z,82.55
2023-03-08T02:56:17.932Z,82.34
2023-03-08T02:59:02.351Z,82.37
2023-03-08T03:01:46.204Z,82.07
2023-03-08T03:04:31.351Z,81.65
2023-03-08T03:07:15.546Z,82.13
2023-03-08T03:10:00.062Z,82.16
2023-03-08T03:12:45.560Z,80.94
2023-03-08T03:15:34.276Z,82.48
2023-03-08T03:18:18.126Z,82.35
2023-03-08T03:21:05.254Z,82.51
2023-03-08T03:23:49.124Z,81.55
2023-03-08T03:26:35.826Z,81.82
2023-03-08T03:29:20.936Z,81.64
2023-03-08T03:32:09.423Z,81.11
2023-03-08T03:34:53.342Z,81.69
2023-03-08T03:37:38.727Z,82.14
2023-03-08T03:40:23.350Z,82.85
2023-03-08T03:43:12.662Z,82.97
2023-03-08T03:45:59.670Z,82.05
2023-03-08T03:48:44.714Z,83.46
2023-03-08T03:51:29.940Z,85.21
2023-03-08T03:54:25.386Z,85.07
2023-03-08T03:57:10.352Z,84.14
2023-03-08T03:59:57.580Z,83.72
2023-03-08T04:02:43.066Z,83.92
2023-03-08T04:05:29.786Z,84.37
2023-03-08T04:08:13.706Z,84.18
2023-03-08T04:11:01.755Z,83.55
2023-03-08T04:13:46.578Z,83.13
2023-03-08T04:16:32.420Z,81.58
2023-03-08T04:19:22.185Z,84.17
2023-03-08T04:22:09.981Z,84.00
2023-03-08T04:25:01.347Z,85.06
2023-03-08T04:28:04.893Z,84.67
2023-03-08T04:30:49.746Z,84.82
2023-03-08T04:33:35.522Z,85.34
2023-03-08T04:36:21.837Z,86.44
2023-03-08T04:39:06.529Z,86.39
2023-03-08T04:41:51.086Z,85.15
2023-03-08T04:44:47.408Z,86.12
2023-03-08T04:47:35.364Z,85.59
2023-03-08T04:50:19.782Z,85.21
2023-03-08T04:53:05.020Z,84.84
2023-03-08T04:55:49.650Z,84.53
2023-03-08T04:58:34.728Z,83.74
2023-03-08T05:01:20.650Z,85.20
2023-03-08T05:04:04.628Z,84.50
2023-03-08T05:06:53.847Z,83.78
2023-03-08T05:09:43.171Z,84.66
2023-03-08T05:12:27.417Z,83.74
2023-03-08T05:15:14.691Z,83.39
2023-03-08T05:17:58.711Z,82.61
2023-03-08T05:20:42.626Z,81.77
2023-03-08T05:23:28.988Z,81.79
2023-03-08T05:26:17.500Z,81.35
2023-03-08T05:29:03.581Z,80.49
2023-03-08T05:31:51.273Z,81.15
2023-03-08T05:34:36.038Z,81.50
2023-03-08T05:37:27.343Z,81.49
2023-03-08T05:40:14.604Z,81.13
2023-03-08T05:43:02.757Z,80.12
2023-03-08T05:45:56.700Z,80.91
2023-03-08T05:48:41.756Z,80.71
2023-03-08T05:51:25.854Z,79.72
2023-03-08T05:54:10.910Z,79.05
2023-03-08T05:56:56.307Z,79.35
2023-03-08T05:59:44.637Z,78.27
2023-03-08T06:02:31.954Z,77.48
2023-03-08T06:05:15.962Z,78.28
2023-03-08T06:08:01.256Z,77.46
2023-03-08T06:10:45.310Z,76.25
2023-03-08T06:13:29.779Z,75.41
2023-03-08T06:16:15.910Z,73.47
2023-03-08T06:18:59.981Z,72.15
2023-03-08T06:21:44.327Z,72.05
2023-03-08T06:24:29.098Z,70.83
2023-03-08T06:27:15.412Z,70.32
2023-03-08T06:30:00.103Z,69.83
2023-03-08T06:32:46.042Z,68.45
2023-03-08T06:35:30.093Z,68.93
2023-03-08T06:38:18.151Z,67.71
2023-03-08T06:41:04.084Z,67.50
2023-03-08T06:43:49.219Z,68.15
2023-03-08T06:46:33.328Z,67.53
2023-03-08T06:49:18.613Z,66.51
2023-03-08T06:52:02.534Z,66.15
2023-03-08T06:54:46.432Z,66.03
2023-03-08T06:57:30.537Z,66.12
2023-03-08T07:00:15.906Z,66.37
2023-03-08T07:02:59.878Z,65.57
2023-03-08T07:05:45.131Z,65.26
2023-03-08T07:08:28.951Z,65.27
2023-03-08T07:11:12.809Z,65.17
2023-03-08T07:13:56.624Z,64.96
2023-03-08T07:16:40.576Z,65.61
2023-03-08T07:19:24.607Z,64.59
2023-03-08T07:22:10.531Z,64.38
2023-03-08T07:24:54.464Z,63.90
2023-03-08T07:27:38.334Z,64.56
2023-03-08T07:30:22.435Z,67.12
2023-03-08T07:33:06.420Z,67.96
2023-03-08T07:35:50.416Z,66.36
2023-03-08T07:38:35.655Z,65.84
2023-03-08T07:41:19.433Z,66.39
2023-03-08T07:44:03.772Z,65.13
2023-03-08T07:46:48.102Z,66.41
2023-03-08T07:49:32.162Z,65.30
2023-03-08T07:52:16.365Z,64.75
2023-03-08T07:55:02.358Z,63.22
2023-03-08T07:57:47.631Z,63.00
2023-03-08T08:00:31.607Z,62.22
2023-03-08T08:03:15.582Z,61.58
2023-03-08T08:06:04.118Z,61.94
2023-03-08T08:08:47.884Z,60.93
2023-03-08T08:11:34.314Z,61.16
2023-03-08T08:14:18.181Z,60.63
2023-03-08T08:17:02.212Z,59.60
2023-03-08T08:19:45.967Z,59.49
2023-03-08T08:22:29.784Z,58.74
2023-03-08T08:25:13.523Z,58.24
2023-03-08T08:27:58.791Z,58.35
2023-03-08T08:30:42.644Z,57.96
2023-03-08T08:33:26.581Z,57.65
2023-03-08T08:36:14.382Z,57.07
2023-03-08T08:38:58.190Z,57.31
2023-03-08T08:41:41.924Z,56.73
2023-03-08T08:44:27.228Z,55.49
2023-03-08T08:47:11.214Z,56.01
2023-03-08T08:49:55.131Z,55.20
2023-03-08T08:52:39.024Z,54.49
2023-03-08T08:55:22.767Z,53.93
2023-03-08T08:58:07.462Z,52.58
2023-03-08T09:00:52.729Z,50.89
2023-03-08T09:03:36.655Z,50.83
2023-03-08T09:06:21.956Z,45.16
2023-03-08T09:09:06.807Z,45.93
2023-03-08T09:11:55.275Z,46.37
2023-03-08T09:14:39.642Z,45.72
2023-03-08T09:17:24.936Z,45.47
2023-03-08T09:20:10.555Z,46.43
2023-03-08T09:22:54.305Z,46.77
2023-03-08T09:25:38.114Z,46.25
2023-03-08T09:28:21.877Z,46.37
2023-03-08T09:31:12.109Z,45.97
2023-03-08T09:33:58.173Z,46.60
2023-03-08T09:36:42.480Z,45.94
2023-03-08T09:39:26.473Z,46.29
2023-03-08T09:42:20.854Z,45.37
2023-03-08T09:45:16.284Z,45.18
2023-03-08T09:48:05.469Z,45.50
2023-03-08T09:50:52.570Z,45.21
2023-03-08T09:53:41.134Z,44.20
2023-03-08T09:56:31.121Z,43.81
2023-03-08T09:59:20.652Z,43.98
2023-03-08T10:02:18.246Z,43.54
2023-03-08T10:05:13.752Z,43.04
2023-03-08T10:08:05.837Z,41.57
2023-03-08T10:10:56.311Z,40.40
2023-03-08T10:13:42.841Z,39.97
2023-03-08T10:16:29.771Z,39.05
2023-03-08T10:19:19.032Z,39.41
2023-03-08T10:22:10.572Z,39.57
2023-03-08T10:24:59.562Z,39.10
2023-03-08T10:27:43.732Z,36.38
2023-03-08T10:30:29.608Z,36.81
2023-03-08T10:33:15.262Z,36.67
2023-03-08T10:36:02.361Z,37.58
2023-03-08T10:38:58.771Z,38.37
2023-03-08T10:41:46.368Z,37.00
2023-03-08T10:44:40.049Z,37.11
2023-03-08T10:47:26.583Z,36.32
2023-03-08T10:50:16.905Z,37.78
2023-03-08T10:53:11.428Z,37.24
2023-03-08T10:55:55.442Z,37.25
2023-03-08T10:58:41.909Z,37.84
2023-03-08T11:01:27.942Z,37.60
2023-03-08T11:04:17.133Z,37.92
2023-03-08T11:07:12.838Z,38.60
2023-03-08T11:10:16.082Z,37.82
2023-03-08T11:13:04.591Z,37.89
2023-03-08T11:15:57.028Z,37.48
2023-03-08T11:18:54.588Z,36.05
2023-03-08T11:21:51.349Z,33.83
2023-03-08T11:24:54.088Z,34.77
2023-03-08T11:27:50.273Z,33.93
2023-03-08T11:30:45.357Z,34.29
2023-03-08T11:33:55.974Z,32.99
2023-03-08T11:36:48.195Z,32.68
2023-03-08T11:39:34.586Z,31.42
2023-03-08T11:42:27.137Z,32.03
2023-03-08T11:45:22.417Z,32.25
2023-03-08T11:48:34.299Z,30.93
2023-03-08T11:51:23.944Z,32.47
2023-03-08T11:54:17.083Z,32.13
2023-03-08T11:57:03.217Z,32.25
2023-03-08T11:59:51.853Z,32.47
2023-03-08T12:02:40.001Z,31.68
2023-03-08T12:05:29.392Z,32.69
2023-03-08T12:08:18.627Z,32.77
2023-03-08T12:11:06.885Z,33.13
2023-03-08T12:13:54.620Z,33.18
2023-03-08T12:16:46.279Z,33.10
2023-03-08T12:19:39.170Z,32.60
2023-03-08T12:22:45.605Z,32.99
2023-03-08T12:25:33.850Z,32.55
2023-03-08T12:28:24.528Z,31.85
2023-03-08T12:31:27.830Z,32.48
2023-03-08T12:34:27.480Z,32.13
2023-03-08T12:37:32.825Z,31.24
2023-03-08T12:40:40.458Z,32.00
2023-03-08T12:43:31.991Z,31.59
2023-03-08T12:46:15.887Z,31.21
2023-03-08T12:48:59.897Z,30.92
2023-03-08T12:51:43.899Z,30.58
2023-03-08T12:54:31.120Z,30.32
2023-03-08T12:57:24.465Z,30.97
2023-03-08T13:00:26.905Z,29.82
2023-03-08T13:03:29.538Z,30.76
2023-03-08T13:06:33.773Z,30.99
2023-03-08T13:09:30.014Z,30.86
2023-03-08T13:12:24.295Z,31.46
2023-03-08T13:15:26.790Z,32.05
2023-03-08T13:18:17.094Z,32.06
2023-03-08T13:21:19.824Z,31.73
2023-03-08T13:24:11.265Z,32.59
2023-03-08T13:27:08.555Z,32.23
2023-03-08T13:29:55.061Z,32.58
2023-03-08T13:32:40.805Z,31.39
2023-03-08T13:35:25.025Z,31.75
2023-03-08T13:38:08.812Z,31.34
2023-03-08T13:40:53.323Z,31.38
2023-03-08T13:43:37.571Z,31.18
2023-03-08T13:46:23.870Z,30.97
2023-03-08T13:49:15.899Z,30.63
2023-03-08T13:52:02.078Z,29.47
2023-03-08T13:54:48.664Z,31.09
2023-03-08T13:57:38.659Z,31.16
2023-03-08T14:00:31.404Z,31.14
2023-03-08T14:03:22.005Z,31.63
2023-03-08T14:06:06.317Z,32.45
2023-03-08T14:08:51.512Z,32.60
2023-03-08T14:11:38.244Z,33.04
2023-03-08T14:14:30.570Z,33.08
2023-03-08T14:17:21.668Z,32.82
2023-03-08T14:20:20.522Z,33.36
2023-03-08T14:23:04.799Z,33.52
2023-03-08T14:25:58.157Z,33.25
2023-03-08T14:28:43.309Z,33.58
2023-03-08T14:31:28.274Z,33.28
2023-03-08T14:34:23.951Z,33.71
2023-03-08T14:37:23.162Z,33.98
2023-03-08T14:40:26.341Z,34.06
2023-03-08T14:43:17.693Z,34.51
2023-03-08T14:46:03.904Z,34.49
2023-03-08T14:48:59.294Z,34.17
2023-03-08T14:51:44.189Z,34.43
2023-03-08T14:54:34.857Z,34.78
2023-03-08T14:57:21.203Z,34.67
2023-03-08T15:00:14.226Z,34.79
2023-03-08T15:02:58.600Z,35.05
2023-03-08T15:05:42.765Z,35.01
2023-03-08T15:08:27.283Z,35.46
2023-03-08T15:11:12.733Z,35.50
2023-03-08T15:13:56.841Z,35.93
2023-03-08T15:16:40.936Z,35.82
2023-03-08T15:19:24.909Z,36.03
2023-03-08T15:22:09.052Z,36.35
2023-03-08T15:24:52.935Z,36.47
2023-03-08T15:27:38.476Z,36.88
2023-03-08T15:30:23.879Z,36.84
2023-03-08T15:33:07.678Z,37.22
2023-03-08T15:35:52.105Z,37.86
2023-03-08T15:38:36.337Z,37.47
2023-03-08T15:41:20.500Z,38.75
2023-03-08T15:44:06.926Z,37.93
2023-03-08T15:46:52.722Z,38.10
2023-03-08T15:49:37.130Z,38.08
2023-03-08T15:52:23.361Z,38.84
2023-03-08T15:55:11.802Z,39.34
2023-03-08T15:57:56.259Z,39.05
2023-03-08T16:00:41.871Z,39.72
2023-03-08T16:03:31.109Z,39.72
2023-03-08T16:06:17.737Z,39.86
2023-03-08T16:09:01.638Z,40.17
2023-03-08T16:11:48.130Z,40.89
2023-03-08T16:14:32.484Z,41.34
2023-03-08T16:17:19.230Z,41.91
2023-03-08T16:20:05.276Z,43.06
2023-03-08T16:22:50.182Z,43.70
2023-03-08T16:25:34.423Z,43.80
2023-03-08T16:28:18.445Z,43.95
2023-03-08T16:31:02.465Z,44.76
2023-03-08T16:33:48.068Z,45.03
2023-03-08T16:36:32.360Z,45.33
2023-03-08T16:39:16.703Z,46.04
2023-03-08T16:42:00.622Z,46.56
2023-03-08T16:44:51.234Z,47.03
2023-03-08T16:47:35.309Z,47.06
2023-03-08T16:50:20.990Z,46.74
2023-03-08T16:53:05.828Z,46.46
2023-03-08T16:55:50.608Z,45.95
2023-03-08T16:58:34.707Z,46.41
2023-03-08T17:01:20.399Z,44.88
2023-03-08T17:04:04.309Z,44.59
2023-03-08T17:06:50.154Z,45.38
2023-03-08T17:09:33.860Z,46.34
2023-03-08T17:12:19.509Z,45.36
2023-03-08T17:15:04.818Z,45.28
2023-03-08T17:17:48.610Z,45.00
2023-03-08T17:20:32.749Z,44.90
2023-03-08T17:23:18.543Z,44.58
2023-03-08T17:26:05.668Z,44.66
2023-03-08T17:28:50.392Z,45.04
2023-03-08T17:31:34.379Z,44.79
2023-03-08T17:34:18.440Z,45.50
2023-03-08T17:37:02.275Z,44.87
2023-03-08T17:39:47.505Z,45.03
2023-03-08T17:42:31.229Z,44.28
2023-03-08T17:45:16.165Z,45.19
2023-03-08T17:48:02.810Z,45.51
2023-03-08T17:50:47.238Z,45.66
2023-03-08T17:53:31.381Z,45.58
2023-03-08T17:56:18.418Z,44.82
2023-03-08T17:59:03.879Z,43.97
2023-03-08T18:01:47.968Z,43.90
2023-03-08T18:04:32.049Z,44.07
2023-03-08T18:07:17.334Z,43.24
2023-03-08T18:10:02.002Z,42.51
2023-03-08T18:12:47.454Z,42.66
2023-03-08T18:15:31.241Z,42.24
2023-03-08T18:18:15.004Z,42.66
2023-03-08T18:21:12.175Z,42.08
2023-03-08T18:23:56.818Z,42.09
2023-03-08T18:26:40.644Z,41.72
2023-03-08T18:29:26.185Z,42.19
2023-03-08T18:32:10.192Z,42.71
2023-03-08T18:34:54.124Z,42.24
2023-03-08T18:37:38.024Z,42.24
2023-03-08T18:40:21.953Z,43.21
2023-03-08T18:43:05.861Z,43.50
2023-03-08T18:45:55.600Z,44.26
2023-03-08T18:48:39.428Z,45.14
2023-03-08T18:51:23.331Z,45.48
2023-03-08T18:54:09.158Z,46.30
2023-03-08T18:56:54.285Z,46.10
2023-03-08T18:59:38.276Z,47.11
2023-03-08T19:02:28.248Z,46.88
2023-03-08T19:05:12.797Z,46.52
2023-03-08T19:07:56.629Z,46.77
2023-03-08T19:10:40.402Z,46.50
2023-03-08T19:13:24.324Z,46.61
2023-03-08T19:16:18.761Z,46.54
2023-03-08T19:19:06.546Z,46.74
2023-03-08T19:21:50.865Z,46.54
2023-03-08T19:24:34.693Z,46.75
2023-03-08T19:27:18.556Z,47.06
2023-03-08T19:30:02.758Z,46.63
2023-03-08T19:32:49.640Z,46.27
2023-03-08T19:35:36.930Z,45.75
2023-03-08T19:38:20.685Z,45.78
2023-03-08T19:41:04.478Z,46.71
2023-03-08T19:43:48.386Z,46.36
2023-03-08T19:46:32.378Z,45.97
2023-03-08T19:49:21.063Z,46.56
2023-03-08T19:52:07.615Z,45.83
2023-03-08T19:54:51.363Z,46.12
2023-03-08T19:57:35.278Z,46.45
2023-03-08T20:00:20.229Z,46.47
2023-03-08T20:03:04.391Z,46.47
2023-03-08T20:05:48.910Z,45.93
2023-03-08T20:08:36.193Z,45.98
2023-03-08T20:11:20.365Z,45.84
2023-03-08T20:14:04.915Z,45.41
2023-03-08T20:16:49.047Z,45.63
2023-03-08T20:19:34.228Z,45.38
2023-03-08T20:22:18.277Z,45.26
2023-03-08T20:25:03.885Z,45.34
2023-03-08T20:27:47.993Z,45.58
2023-03-08T20:30:32.148Z,46.34
2023-03-08T20:33:16.817Z,46.27
2023-03-08T20:36:02.258Z,45.91
2023-03-08T20:38:46.744Z,46.33
2023-03-08T20:41:32.277Z,45.40
2023-03-08T20:44:16.291Z,46.09
2023-03-08T20:47:00.394Z,46.09
2023-03-08T20:49:44.721Z,45.61
2023-03-08T20:52:29.084Z,46.30
2023-03-08T20:55:13.208Z,46.90
2023-03-08T20:57:58.733Z,48.39
2023-03-08T21:00:42.844Z,48.76
2023-03-08T21:03:27.795Z,48.48
2023-03-08T21:06:13.462Z,47.82
2023-03-08T21:08:58.442Z,48.21
2023-03-08T21:11:43.707Z,48.97
2023-03-08T21:14:30.168Z,48.92
2023-03-08T21:17:14.175Z,49.94
2023-03-08T21:19:58.476Z,50.31
2023-03-08T21:22:46.418Z,49.63
2023-03-08T21:25:30.793Z,48.62
2023-03-08T21:28:17.540Z,48.17
2023-03-08T21:31:03.282Z,49.44
2023-03-08T21:33:49.095Z,49.46
2023-03-08T21:36:33.753Z,48.28
2023-03-08T21:39:17.920Z,48.51
2023-03-08T21:42:01.979Z,47.88
2023-03-08T21:44:46.101Z,47.55
2023-03-08T21:47:31.441Z,46.70
2023-03-08T21:50:15.426Z,46.38
2023-03-08T21:52:59.572Z,46.25
2023-03-08T21:55:43.718Z,46.02
2023-03-08T21:58:28.034Z,45.99
2023-03-08T22:01:20.165Z,46.21
2023-03-08T22:04:06.898Z,46.63
2023-03-08T22:06:50.959Z,47.05
2023-03-08T22:09:34.929Z,47.78
2023-03-08T22:12:20.086Z,47.14
2023-03-08T22:15:04.398Z,48.09
2023-03-08T22:17:48.421Z,48.83
2023-03-08T22:20:33.884Z,48.96
2023-03-08T22:23:18.372Z,49.30
2023-03-08T22:26:02.474Z,49.20
2023-03-08T22:28:46.916Z,49.46
2023-03-08T22:31:31.738Z,50.26
2023-03-08T22:34:15.861Z,50.27
2023-03-08T22:37:01.725Z,50.00
2023-03-08T22:39:45.805Z,49.80
2023-03-08T22:42:29.845Z,50.35
2023-03-08T22:45:14.800Z,50.43
2023-03-08T22:48:00.773Z,49.96
2023-03-08T22:50:45.061Z,49.66
2023-03-08T22:53:30.595Z,50.31
2023-03-08T22:56:21.011Z,49.66
2023-03-08T22:59:05.287Z,49.73
2023-03-08T23:01:49.422Z,49.26
2023-03-08T23:04:33.484Z,49.42
2023-03-08T23:07:17.770Z,49.56
2023-03-08T23:10:04.412Z,49.67
2023-03-08T23:12:48.761Z,49.87
2023-03-08T23:15:32.783Z,50.70
2023-03-08T23:18:16.794Z,50.69
2023-03-08T23:21:04.086Z,51.00
2023-03-08T23:23:48.460Z,51.17
2023-03-08T23:26:34.271Z,51.19
2023-03-08T23:29:18.443Z,50.81
2023-03-08T23:32:02.523Z,50.78
2023-03-08T23:34:46.680Z,51.25
2023-03-08T23:37:30.891Z,51.14
2023-03-08T23:40:16.041Z,51.09
2023-03-08T23:43:01.701Z,51.55
2023-03-08T23:45:45.700Z,51.41
2023-03-08T23:48:29.677Z,51.36
2023-03-08T23:51:16.182Z,51.75
2023-03-08T23:54:02.156Z,51.22
2023-03-08T23:56:46.149Z,51.51
2023-03-08T23:59:31.576Z,51.50
